Time;durP1;ratioP1;P1;durP2;ratioP2;P2;SDS_P1;SDS_P2;PMS_P1;PMS_P2;Temp;Humidity;BMP_temperature;BMP_pressure;BME280_temperature;BME280_humidity;BME280_pressure;Samples;Min_cycle;Max_cycle;Signal;HPM_P1;HPM_P2
2022/01/06 00:01:20;;;;;;;11.03;5.60;;;2.20;99.90;;;;;;5160547;27;20360;-67
2022/01/06 00:03:47;;;;;;;13.70;5.67;;;2.10;99.90;;;;;;5139236;27;20135;-67
2022/01/06 00:06:14;;;;;;;13.30;5.97;;;2.00;99.90;;;;;;5140235;27;20391;-66
2022/01/06 00:08:41;;;;;;;11.13;5.90;;;1.90;99.90;;;;;;5140348;27;20171;-66
2022/01/06 00:11:10;;;;;;;12.33;5.40;;;1.80;99.90;;;;;;5140229;27;20140;-66
2022/01/06 00:14:16;;;;;;;17.17;5.80;;;1.70;99.90;;;;;;5139437;27;20526;-66
2022/01/06 00:24:27;;;;;;;13.50;6.03;;;1.60;99.90;;;;;;5140850;27;20183;-66
2022/01/06 00:26:56;;;;;;;10.53;5.73;;;1.60;99.90;;;;;;5140023;27;20143;-66
2022/01/06 00:29:24;;;;;;;10.70;5.93;;;1.60;99.90;;;;;;5140351;27;20179;-66
2022/01/06 00:31:52;;;;;;;15.30;6.47;;;1.60;99.90;;;;;;5140275;27;20144;-66
2022/01/06 00:34:19;;;;;;;12.90;6.20;;;1.70;99.90;;;;;;5160412;27;20419;-66
2022/01/06 00:36:46;;;;;;;11.60;6.27;;;1.70;99.90;;;;;;5159373;27;20352;-66
2022/01/06 00:39:13;;;;;;;14.00;6.27;;;1.70;99.90;;;;;;5159474;27;20171;-66
2022/01/06 00:41:40;;;;;;;13.27;5.77;;;1.70;99.90;;;;;;5140984;27;20148;-66
2022/01/06 00:44:08;;;;;;;13.83;5.87;;;1.70;99.90;;;;;;5139824;27;20152;-66
2022/01/06 00:46:35;;;;;;;14.80;5.67;;;1.80;99.90;;;;;;5158243;27;20116;-66
2022/01/06 00:49:03;;;;;;;13.10;6.37;;;1.80;99.90;;;;;;5141687;27;20136;-66
2022/01/06 00:51:30;;;;;;;11.97;5.90;;;1.80;99.90;;;;;;5139554;27;20175;-66
2022/01/06 00:53:58;;;;;;;15.43;6.43;;;1.80;99.90;;;;;;5139993;27;20175;-66
2022/01/06 00:56:25;;;;;;;16.10;5.90;;;1.80;99.90;;;;;;5141482;27;20155;-66
2022/01/06 00:58:52;;;;;;;12.37;6.10;;;1.90;99.90;;;;;;5139911;27;20156;-66
2022/01/06 01:01:19;;;;;;;10.77;5.50;;;1.80;99.90;;;;;;5158498;27;20135;-66
2022/01/06 01:03:46;;;;;;;13.60;6.10;;;1.90;99.90;;;;;;5141515;27;20423;-66
2022/01/06 01:06:13;;;;;;;11.37;6.00;;;1.90;99.90;;;;;;5141288;27;20155;-67
2022/01/06 01:08:40;;;;;;;11.27;5.70;;;1.90;99.90;;;;;;5140215;27;20167;-66
2022/01/06 01:11:07;;;;;;;12.20;6.20;;;1.90;99.90;;;;;;5156298;27;20144;-66
2022/01/06 01:13:43;;;;;;;14.10;6.10;;;1.90;99.90;;;;;;5140291;27;20175;-66
2022/01/06 01:16:26;;;;;;;12.73;5.90;;;1.90;99.90;;;;;;5141372;27;20147;-66
2022/01/06 01:18:55;;;;;;;14.50;5.83;;;2.00;99.90;;;;;;5141408;27;20526;-66
2022/01/06 01:21:27;;;;;;;11.90;5.90;;;1.90;99.90;;;;;;5139010;27;20450;-66
2022/01/06 01:23:56;;;;;;;14.03;6.13;;;2.00;99.90;;;;;;5140125;27;20189;-66
2022/01/06 01:26:23;;;;;;;14.27;6.17;;;2.00;99.90;;;;;;5140074;27;20156;-66
2022/01/06 01:28:51;;;;;;;10.57;5.80;;;2.00;99.90;;;;;;5159153;27;20159;-66
2022/01/06 01:33:52;;;;;;;17.37;6.60;;;2.00;99.90;;;;;;5141433;27;20191;-66
2022/01/06 01:36:19;;;;;;;11.50;5.63;;;2.00;99.90;;;;;;5157930;27;20136;-67
2022/01/06 01:38:47;;;;;;;10.23;5.87;;;2.00;99.90;;;;;;5140107;27;20167;-66
2022/01/06 01:41:14;;;;;;;15.20;6.23;;;2.00;99.90;;;;;;5156578;27;20152;-67
2022/01/06 01:43:42;;;;;;;14.30;6.43;;;2.00;99.90;;;;;;5139868;27;20537;-67
2022/01/06 01:46:13;;;;;;;12.17;6.00;;;2.10;99.90;;;;;;5158702;27;20168;-66
2022/01/06 01:48:46;;;;;;;12.63;5.70;;;2.10;99.90;;;;;;5141833;27;20164;-66
2022/01/06 01:51:13;;;;;;;12.60;5.93;;;2.10;99.90;;;;;;5140906;27;20482;-66
2022/01/06 01:53:40;;;;;;;13.10;6.00;;;2.10;99.90;;;;;;5140459;27;20143;-67
2022/01/06 01:56:10;;;;;;;11.33;5.80;;;2.10;99.90;;;;;;5139545;27;20144;-66
2022/01/06 01:58:38;;;;;;;11.90;6.20;;;2.20;99.90;;;;;;5141398;27;20376;-66
2022/01/06 02:01:06;;;;;;;11.60;6.00;;;2.20;99.90;;;;;;5142667;27;20152;-67
2022/01/06 02:03:34;;;;;;;11.13;5.27;;;2.20;99.90;;;;;;5142348;27;20143;-67
2022/01/06 02:06:01;;;;;;;13.13;6.03;;;2.20;99.90;;;;;;5142550;27;20132;-66
2022/01/06 02:08:30;;;;;;;9.47;5.73;;;2.30;99.90;;;;;;5158050;27;20199;-66
2022/01/06 02:10:57;;;;;;;12.83;6.00;;;2.30;99.90;;;;;;5158967;27;20151;-67
2022/01/06 02:13:28;;;;;;;10.23;5.57;;;2.20;99.90;;;;;;5157296;27;20151;-67
2022/01/06 02:15:59;;;;;;;12.73;6.10;;;2.20;99.90;;;;;;5157442;27;20156;-66
2022/01/06 02:18:28;;;;;;;11.30;5.57;;;2.20;99.90;;;;;;5140718;27;20155;-66
2022/01/06 02:20:56;;;;;;;10.90;5.37;;;2.20;99.90;;;;;;5158255;27;20148;-66
2022/01/06 02:23:23;;;;;;;11.07;5.73;;;2.20;99.90;;;;;;5141928;27;20156;-66
2022/01/06 02:25:50;;;;;;;11.07;5.67;;;2.20;99.90;;;;;;5140134;27;20152;-66
2022/01/06 02:28:24;;;;;;;14.13;6.03;;;2.20;99.90;;;;;;5140226;27;20160;-66
2022/01/06 02:30:54;;;;;;;11.33;5.70;;;2.30;99.90;;;;;;5140737;27;20373;-66
2022/01/06 02:33:21;;;;;;;10.73;5.87;;;2.30;99.90;;;;;;5141808;27;20150;-66
2022/01/06 02:35:49;;;;;;;9.63;5.47;;;2.40;99.90;;;;;;5158311;27;20147;-66
2022/01/06 02:38:17;;;;;;;9.90;5.80;;;2.40;99.90;;;;;;5141653;27;20132;-66
2022/01/06 02:40:45;;;;;;;11.47;5.33;;;2.40;99.90;;;;;;5142485;27;20140;-66
2022/01/06 02:43:15;;;;;;;11.10;5.30;;;2.50;99.90;;;;;;5141664;27;20183;-66
2022/01/06 02:45:43;;;;;;;10.47;5.60;;;2.50;99.90;;;;;;5140025;27;20214;-66
2022/01/06 02:48:10;;;;;;;13.07;5.20;;;2.60;99.90;;;;;;5158887;27;20154;-66
2022/01/06 02:50:42;;;;;;;9.17;5.23;;;2.60;99.90;;;;;;5160191;27;20116;-66
2022/01/06 02:53:11;;;;;;;11.13;5.20;;;2.60;99.90;;;;;;5159566;27;20116;-66
2022/01/06 02:55:45;;;;;;;9.03;4.67;;;2.60;99.90;;;;;;5141596;27;20144;-66
2022/01/06 02:58:32;;;;;;;9.03;4.90;;;2.70;99.90;;;;;;5159067;27;20171;-66
2022/01/06 03:01:00;;;;;;;9.20;4.80;;;2.70;99.90;;;;;;5142124;27;20183;-66
2022/01/06 03:03:27;;;;;;;8.83;4.83;;;2.70;99.90;;;;;;5159346;27;20578;-66
2022/01/06 03:05:54;;;;;;;8.70;4.63;;;2.70;99.90;;;;;;5140539;27;20195;-66
2022/01/06 03:08:23;;;;;;;8.57;4.37;;;2.80;99.90;;;;;;5140824;27;20163;-66
2022/01/06 03:10:50;;;;;;;7.57;4.13;;;2.80;99.90;;;;;;5139631;27;20558;-66
2022/01/06 03:13:17;;;;;;;7.27;4.20;;;2.90;99.90;;;;;;5141881;27;20143;-66
2022/01/06 03:15:44;;;;;;;6.50;4.10;;;2.90;99.90;;;;;;5157695;27;20156;-66
2022/01/06 03:18:11;;;;;;;8.03;4.50;;;2.90;99.90;;;;;;5142167;27;20147;-66
2022/01/06 03:20:38;;;;;;;8.17;4.20;;;2.90;99.90;;;;;;5141340;27;20187;-66
2022/01/06 03:23:06;;;;;;;7.63;4.43;;;3.00;99.90;;;;;;5140523;27;20154;-66
2022/01/06 03:25:33;;;;;;;7.87;4.40;;;3.00;99.90;;;;;;5158944;27;20148;-66
2022/01/06 03:28:00;;;;;;;7.57;4.23;;;3.00;99.90;;;;;;5142194;27;20148;-66
2022/01/06 03:30:27;;;;;;;7.27;4.80;;;3.00;99.90;;;;;;5160974;27;20147;-66
2022/01/06 03:32:54;;;;;;;9.07;4.33;;;3.00;99.90;;;;;;5139800;27;20139;-66
2022/01/06 03:35:23;;;;;;;7.87;4.90;;;3.00;99.90;;;;;;5140747;27;20518;-66
2022/01/06 03:37:51;;;;;;;8.90;4.40;;;3.00;99.90;;;;;;5159581;27;20396;-66
2022/01/06 03:40:18;;;;;;;6.77;4.50;;;3.00;99.90;;;;;;5159680;27;20506;-66
2022/01/06 03:42:45;;;;;;;12.10;4.77;;;2.90;99.90;;;;;;5157721;27;20150;-66
2022/01/06 03:45:15;;;;;;;10.63;4.50;;;2.90;99.90;;;;;;5140075;27;20187;-66
2022/01/06 03:47:43;;;;;;;8.50;4.50;;;3.00;99.90;;;;;;5159245;27;20155;-66
2022/01/06 03:50:12;;;;;;;9.23;4.80;;;2.90;99.90;;;;;;5140177;27;20151;-66
2022/01/06 03:52:39;;;;;;;6.80;4.80;;;2.90;99.90;;;;;;5140688;27;20399;-66
2022/01/06 03:55:10;;;;;;;7.47;4.40;;;2.90;99.90;;;;;;5159102;27;20417;-66
2022/01/06 03:57:38;;;;;;;8.23;4.67;;;2.90;99.90;;;;;;5160900;27;20119;-66
2022/01/06 04:00:07;;;;;;;9.47;4.87;;;2.90;99.90;;;;;;5141158;27;20152;-66
2022/01/06 04:02:34;;;;;;;6.90;4.90;;;3.00;99.90;;;;;;5140268;27;20208;-66
2022/01/06 04:05:06;;;;;;;8.87;5.07;;;2.90;99.90;;;;;;5140325;27;20151;-66
2022/01/06 04:07:33;;;;;;;8.07;4.93;;;2.90;99.90;;;;;;5139545;27;20144;-66
2022/01/06 04:10:01;;;;;;;7.87;4.50;;;2.90;99.90;;;;;;5140573;27;20144;-66
2022/01/06 04:12:28;;;;;;;6.50;4.40;;;3.00;99.90;;;;;;5159282;27;20167;-66
2022/01/06 04:14:56;;;;;;;6.87;4.30;;;3.00;99.90;;;;;;5141522;27;20152;-66
2022/01/06 04:17:25;;;;;;;6.63;4.43;;;3.10;99.90;;;;;;5142465;27;20215;-66
2022/01/06 04:19:52;;;;;;;6.47;4.60;;;3.10;99.90;;;;;;5159499;27;20120;-66
2022/01/06 04:22:19;;;;;;;8.20;4.50;;;3.10;99.90;;;;;;5142148;27;20163;-66
2022/01/06 04:24:46;;;;;;;6.37;4.10;;;3.20;99.90;;;;;;5140685;27;20163;-66
2022/01/06 04:27:13;;;;;;;6.17;4.10;;;3.20;99.90;;;;;;5157134;27;20167;-66
2022/01/06 04:29:40;;;;;;;8.77;4.13;;;3.20;99.90;;;;;;5139633;27;20154;-66
2022/01/06 04:32:07;;;;;;;6.10;4.00;;;3.30;99.90;;;;;;5156758;27;20144;-66
2022/01/06 04:34:35;;;;;;;7.10;4.23;;;3.20;99.90;;;;;;5140067;27;20155;-66
2022/01/06 04:37:02;;;;;;;6.33;3.90;;;3.20;99.90;;;;;;5159358;27;20143;-66
2022/01/06 04:39:29;;;;;;;7.23;4.03;;;3.20;99.90;;;;;;5140892;27;20158;-66
2022/01/06 04:41:57;;;;;;;6.95;4.30;;;3.20;99.90;;;;;;5141198;27;20144;-66
2022/01/06 04:44:24;;;;;;;4.93;3.80;;;3.10;99.90;;;;;;5139313;27;20268;-66
2022/01/06 04:46:51;;;;;;;5.30;3.97;;;3.10;99.90;;;;;;5139221;27;20144;-66
2022/01/06 04:49:18;;;;;;;5.90;4.20;;;3.10;99.90;;;;;;5140817;27;20144;-66
2022/01/06 04:51:45;;;;;;;6.37;4.00;;;3.00;99.90;;;;;;5160492;27;20202;-66
2022/01/06 04:54:12;;;;;;;7.00;4.33;;;3.00;99.90;;;;;;5141157;27;20163;-66
2022/01/06 04:56:39;;;;;;;6.17;4.10;;;3.00;99.90;;;;;;5141146;27;20151;-66
2022/01/06 04:59:08;;;;;;;9.57;4.60;;;2.90;99.90;;;;;;5139214;27;20140;-66
2022/01/06 05:01:37;;;;;;;6.60;4.50;;;2.90;99.90;;;;;;5159522;27;20100;-66
2022/01/06 05:04:05;;;;;;;5.93;4.77;;;2.90;99.90;;;;;;5141239;27;20183;-66
2022/01/06 05:06:32;;;;;;;7.47;5.10;;;2.80;99.90;;;;;;5140337;27;20151;-66
2022/01/06 05:08:59;;;;;;;7.37;4.97;;;2.80;99.90;;;;;;5139874;27;20374;-66
2022/01/06 05:11:26;;;;;;;9.40;5.13;;;2.80;99.90;;;;;;5139494;27;20143;-66
2022/01/06 05:13:53;;;;;;;9.73;5.40;;;2.80;99.90;;;;;;5157736;27;20188;-66
2022/01/06 05:16:20;;;;;;;7.50;5.17;;;2.80;99.90;;;;;;5159968;27;20119;-66
2022/01/06 05:18:47;;;;;;;8.07;5.63;;;2.80;99.90;;;;;;5139446;27;20140;-66
2022/01/06 05:21:14;;;;;;;8.47;5.63;;;2.80;99.90;;;;;;5139470;27;20404;-66
2022/01/06 05:23:41;;;;;;;7.73;5.50;;;2.80;99.90;;;;;;5159254;27;20128;-66
2022/01/06 05:26:09;;;;;;;7.53;5.33;;;2.80;99.90;;;;;;5156174;27;20160;-66
2022/01/06 05:28:36;;;;;;;11.47;5.70;;;2.80;99.90;;;;;;5138965;27;20471;-66
2022/01/06 05:31:03;;;;;;;9.00;5.50;;;2.80;99.90;;;;;;5158537;27;20179;-66
2022/01/06 05:33:31;;;;;;;8.03;5.50;;;2.80;99.90;;;;;;5158082;27;20185;-66
2022/01/06 05:35:58;;;;;;;9.83;5.53;;;2.80;99.90;;;;;;5141080;27;20162;-66
2022/01/06 05:38:25;;;;;;;9.40;5.50;;;2.80;99.90;;;;;;5156572;27;20404;-66
2022/01/06 05:40:53;;;;;;;10.47;5.23;;;2.70;99.90;;;;;;5139061;27;20184;-66
2022/01/06 05:43:21;;;;;;;7.60;5.20;;;2.70;99.90;;;;;;5159498;27;20128;-66
2022/01/06 05:45:51;;;;;;;8.20;5.17;;;2.70;99.90;;;;;;5141828;27;20162;-66
2022/01/06 05:48:18;;;;;;;7.97;4.90;;;2.70;99.90;;;;;;5139408;27;20140;-66
2022/01/06 05:50:49;;;;;;;6.67;5.10;;;2.80;99.90;;;;;;5158797;27;20108;-66
2022/01/06 05:53:17;;;;;;;6.50;4.73;;;2.80;99.90;;;;;;5139180;27;20205;-66
2022/01/06 05:55:44;;;;;;;7.70;4.90;;;2.80;99.90;;;;;;5139518;27;20144;-66
2022/01/06 05:58:12;;;;;;;8.53;4.50;;;2.80;99.90;;;;;;5141052;27;20206;-66
2022/01/06 06:00:39;;;;;;;8.33;5.20;;;2.80;99.90;;;;;;5156726;27;20235;-66
2022/01/06 06:03:06;;;;;;;5.90;4.53;;;2.80;99.90;;;;;;5160001;27;20155;-66
2022/01/06 06:05:33;;;;;;;7.03;4.13;;;2.80;99.90;;;;;;5160636;27;20195;-66
2022/01/06 06:08:01;;;;;;;6.97;4.43;;;2.80;99.90;;;;;;5139081;27;20140;-66
2022/01/06 06:10:28;;;;;;;7.67;4.50;;;2.80;99.90;;;;;;5139615;27;20148;-66
2022/01/06 06:12:56;;;;;;;6.00;4.00;;;2.80;99.90;;;;;;5138806;27;20503;-65
2022/01/06 06:15:23;;;;;;;7.60;4.50;;;2.80;99.90;;;;;;5140989;27;20167;-66
2022/01/06 06:17:50;;;;;;;7.47;4.77;;;2.80;99.90;;;;;;5139406;27;20208;-66
2022/01/06 06:20:17;;;;;;;7.37;4.57;;;2.80;99.90;;;;;;5158399;27;20107;-66
2022/01/06 06:22:44;;;;;;;7.60;4.53;;;2.80;99.90;;;;;;5156625;27;20162;-66
2022/01/06 06:25:11;;;;;;;8.13;4.73;;;2.70;99.90;;;;;;5139404;27;20172;-66
2022/01/06 06:27:39;;;;;;;7.73;4.90;;;2.70;99.90;;;;;;5141075;27;20151;-66
2022/01/06 06:30:06;;;;;;;8.07;4.87;;;2.80;99.90;;;;;;5157212;27;20192;-66
2022/01/06 06:32:35;;;;;;;7.20;4.57;;;2.80;99.90;;;;;;5159292;27;20200;-66
2022/01/06 06:35:04;;;;;;;7.30;4.90;;;2.80;99.90;;;;;;5158136;27;20148;-66
2022/01/06 06:37:31;;;;;;;8.20;5.10;;;2.80;99.90;;;;;;5132998;27;20142;-66
2022/01/06 06:39:58;;;;;;;7.23;5.07;;;2.80;99.90;;;;;;5141294;27;20179;-66
2022/01/06 06:42:27;;;;;;;7.83;5.30;;;2.80;99.90;;;;;;5140423;27;20151;-66
2022/01/06 06:44:55;;;;;;;6.90;5.03;;;2.80;99.90;;;;;;5158212;27;20159;-66
2022/01/06 06:47:22;;;;;;;9.37;5.23;;;2.80;99.90;;;;;;5140403;27;20144;-65
2022/01/06 06:49:49;;;;;;;8.37;5.33;;;2.80;99.90;;;;;;5142379;27;20142;-66
2022/01/06 06:52:17;;;;;;;8.93;5.00;;;2.80;99.90;;;;;;5159179;27;20112;-66
2022/01/06 06:54:43;;;;;;;8.37;5.20;;;2.80;99.90;;;;;;5158512;27;20514;-66
2022/01/06 06:57:11;;;;;;;7.40;4.90;;;2.80;99.90;;;;;;5140166;27;20155;-66
2022/01/06 06:59:38;;;;;;;8.37;5.27;;;2.70;99.90;;;;;;5140474;27;20148;-66
2022/01/06 07:02:05;;;;;;;8.13;4.77;;;2.80;99.90;;;;;;5141801;27;20491;-66
2022/01/06 07:04:32;;;;;;;9.33;4.93;;;2.80;99.90;;;;;;5140741;27;20546;-66
2022/01/06 07:07:15;;;;;;;7.57;4.43;;;2.80;99.90;;;;;;5140399;27;20155;-66
2022/01/06 07:09:42;;;;;;;6.47;4.37;;;2.80;99.90;;;;;;5141387;27;20147;-66
2022/01/06 07:12:09;;;;;;;8.20;4.57;;;2.80;99.90;;;;;;5139776;27;20389;-66
2022/01/06 07:14:36;;;;;;;5.43;3.90;;;2.80;99.90;;;;;;5157143;27;20159;-66
2022/01/06 07:17:04;;;;;;;4.47;3.00;;;2.70;99.90;;;;;;5140193;27;20215;-66
2022/01/06 07:19:31;;;;;;;5.20;3.03;;;2.70;99.90;;;;;;5158168;27;20195;-66
2022/01/06 07:21:58;;;;;;;4.27;2.90;;;2.70;99.90;;;;;;5140385;27;20199;-67
2022/01/06 07:24:25;;;;;;;4.83;2.80;;;2.70;99.90;;;;;;5139497;27;20140;-66
2022/01/06 07:26:52;;;;;;;5.17;2.77;;;2.60;99.90;;;;;;5141058;27;20145;-66
2022/01/06 07:29:19;;;;;;;4.20;2.70;;;2.60;99.90;;;;;;5139594;27;20147;-66
2022/01/06 07:31:46;;;;;;;4.63;2.80;;;2.60;99.90;;;;;;5140664;27;20160;-67
2022/01/06 07:34:14;;;;;;;4.93;3.00;;;2.60;99.90;;;;;;5140505;27;20162;-67
2022/01/06 07:36:41;;;;;;;4.13;2.60;;;2.60;99.90;;;;;;5141793;27;20148;-66
2022/01/06 07:39:08;;;;;;;4.00;2.67;;;2.50;99.90;;;;;;5141163;27;20183;-66
2022/01/06 07:41:35;;;;;;;3.70;2.50;;;2.50;99.90;;;;;;5139647;27;20159;-67
2022/01/06 07:44:06;;;;;;;4.10;2.40;;;2.50;99.90;;;;;;5140994;27;20262;-66
2022/01/06 07:46:37;;;;;;;4.33;2.60;;;2.50;99.90;;;;;;5140434;27;20188;-66
2022/01/06 07:49:05;;;;;;;3.27;2.40;;;2.50;99.90;;;;;;5141045;27;20167;-66
2022/01/06 07:51:32;;;;;;;4.20;2.90;;;2.50;99.90;;;;;;5157234;27;20151;-66
2022/01/06 07:54:00;;;;;;;5.33;2.60;;;2.50;99.90;;;;;;5140331;27;20203;-66
2022/01/06 07:56:27;;;;;;;4.53;2.67;;;2.40;99.90;;;;;;5139440;27;20152;-66
2022/01/06 07:58:54;;;;;;;5.47;2.40;;;2.40;99.90;;;;;;5140168;27;20182;-66
2022/01/06 08:01:22;;;;;;;3.93;2.60;;;2.40;99.90;;;;;;5158916;27;20170;-66
2022/01/06 08:03:50;;;;;;;6.97;2.40;;;2.40;99.90;;;;;;5139336;27;20148;-66
2022/01/06 08:06:18;;;;;;;2.93;2.10;;;2.40;99.90;;;;;;5139788;27;20494;-66
2022/01/06 08:08:46;;;;;;;4.20;2.20;;;2.40;99.90;;;;;;5158848;27;20116;-65
2022/01/06 08:11:13;;;;;;;4.03;2.23;;;2.40;99.90;;;;;;5141092;27;20182;-66
2022/01/06 08:13:41;;;;;;;3.83;2.10;;;2.40;99.90;;;;;;5139197;27;20148;-66
2022/01/06 08:16:08;;;;;;;2.93;2.17;;;2.40;99.90;;;;;;5141426;27;20184;-66
2022/01/06 08:18:35;;;;;;;6.07;2.40;;;2.30;99.90;;;;;;5160331;27;20155;-66
2022/01/06 08:21:03;;;;;;;4.47;2.40;;;2.30;99.90;;;;;;5156919;27;20196;-66
2022/01/06 08:23:31;;;;;;;4.27;2.20;;;2.30;99.90;;;;;;5141513;27;20140;-66
2022/01/06 08:25:58;;;;;;;4.17;2.60;;;2.40;99.90;;;;;;5139160;27;20301;-66
2022/01/06 08:28:26;;;;;;;4.13;2.60;;;2.40;99.90;;;;;;5160429;27;20199;-66
2022/01/06 08:30:53;;;;;;;4.07;2.50;;;2.40;99.90;;;;;;5140350;27;20148;-66
2022/01/06 08:33:20;;;;;;;3.70;2.50;;;2.40;99.90;;;;;;5139658;27;20156;-66
2022/01/06 08:35:47;;;;;;;5.10;2.63;;;2.40;99.90;;;;;;5138841;27;20141;-66
2022/01/06 08:38:16;;;;;;;6.33;3.03;;;2.40;99.90;;;;;;5140462;27;20139;-66
2022/01/06 08:40:44;;;;;;;3.43;2.57;;;2.40;99.90;;;;;;5140215;27;20154;-66
2022/01/06 08:43:11;;;;;;;3.07;2.67;;;2.50;99.90;;;;;;5139288;27;20151;-66
2022/01/06 08:45:39;;;;;;;4.60;2.60;;;2.40;99.90;;;;;;5140136;27;20390;-66
2022/01/06 08:48:06;;;;;;;5.43;2.60;;;2.40;99.90;;;;;;5157422;27;20115;-66
2022/01/06 08:50:34;;;;;;;4.80;2.77;;;2.40;99.90;;;;;;5141041;27;20148;-66
2022/01/06 08:53:02;;;;;;;4.30;2.70;;;2.40;99.90;;;;;;5156598;27;20147;-66
2022/01/06 08:55:29;;;;;;;5.10;2.60;;;2.40;99.90;;;;;;5149507;27;20368;-66
2022/01/06 08:57:57;;;;;;;3.90;2.57;;;2.30;99.90;;;;;;5159796;27;20522;-65
2022/01/06 09:00:24;;;;;;;4.17;2.90;;;2.30;99.90;;;;;;5158050;27;20142;-65
2022/01/06 09:02:54;;;;;;;5.67;2.73;;;2.30;99.90;;;;;;5157763;27;20132;-66
2022/01/06 09:05:25;;;;;;;5.07;2.90;;;2.40;99.90;;;;;;5139027;27;20211;-66
2022/01/06 09:07:52;;;;;;;5.37;2.70;;;2.30;99.90;;;;;;5157887;27;20165;-65
2022/01/06 09:10:19;;;;;;;5.50;2.70;;;2.20;99.90;;;;;;5139512;27;20140;-66
2022/01/06 09:12:46;;;;;;;4.77;3.03;;;2.30;99.90;;;;;;5139696;27;20156;-66
2022/01/06 09:15:13;;;;;;;4.90;2.77;;;2.40;99.90;;;;;;5157719;27;20148;-66
2022/01/06 09:17:40;;;;;;;5.63;3.40;;;2.40;99.90;;;;;;5158386;27;20127;-66
2022/01/06 09:20:08;;;;;;;4.37;3.10;;;2.40;99.90;;;;;;5141018;27;20399;-66
2022/01/06 09:22:42;;;;;;;6.33;2.90;;;2.30;99.90;;;;;;5139143;27;20152;-67
2022/01/06 09:25:12;;;;;;;6.33;3.43;;;2.30;99.90;;;;;;5138326;27;20447;-66
2022/01/06 09:27:40;;;;;;;5.27;2.83;;;2.20;99.90;;;;;;5139687;27;20154;-66
2022/01/06 09:30:09;;;;;;;5.30;3.13;;;2.20;99.90;;;;;;5139799;27;20144;-65
2022/01/06 09:32:37;;;;;;;4.70;3.10;;;2.20;99.90;;;;;;5140724;27;20140;-66
2022/01/06 09:35:04;;;;;;;6.97;3.60;;;2.10;99.90;;;;;;5159787;27;20120;-66
2022/01/06 09:37:32;;;;;;;6.87;3.57;;;2.20;99.90;;;;;;5140528;27;20147;-66
2022/01/06 09:39:59;;;;;;;6.83;3.70;;;2.20;99.90;;;;;;5138775;27;20191;-66
2022/01/06 09:42:26;;;;;;;7.23;3.43;;;2.20;99.90;;;;;;5139123;27;20160;-66
2022/01/06 09:44:53;;;;;;;5.50;3.27;;;2.20;99.90;;;;;;5138405;27;20208;-66
2022/01/06 09:47:22;;;;;;;5.33;3.10;;;2.20;99.90;;;;;;5157669;27;20127;-66
2022/01/06 09:50:10;;;;;;;6.27;3.53;;;2.20;99.90;;;;;;5158213;27;20471;-66
2022/01/06 09:52:37;;;;;;;6.33;3.20;;;2.20;99.90;;;;;;5138413;27;20160;-67
2022/01/06 09:55:05;;;;;;;8.70;3.40;;;2.20;99.90;;;;;;5139466;27;20188;-65
2022/01/06 09:57:32;;;;;;;7.10;3.90;;;2.20;99.90;;;;;;5140757;27;20155;-66
2022/01/06 10:00:01;;;;;;;6.60;3.77;;;2.10;99.90;;;;;;5140059;27;20143;-65
2022/01/06 10:02:36;;;;;;;6.37;4.10;;;2.00;99.90;;;;;;5138235;27;20159;-66
2022/01/06 10:05:04;;;;;;;7.20;4.00;;;1.90;99.90;;;;;;5139863;27;20176;-66
2022/01/06 10:07:37;;;;;;;7.10;3.90;;;1.80;99.90;;;;;;5138462;27;20514;-68
2022/01/06 10:10:10;;;;;;;8.40;3.80;;;1.80;99.90;;;;;;5138893;27;20143;-66
2022/01/06 10:12:39;;;;;;;8.47;3.50;;;1.70;99.90;;;;;;5139558;27;20389;-66
2022/01/06 10:15:27;;;;;;;6.33;3.80;;;1.60;99.90;;;;;;5140402;27;20167;-66
2022/01/06 10:17:55;;;;;;;7.60;3.90;;;1.60;99.90;;;;;;5158349;27;20562;-66
2022/01/06 10:20:28;;;;;;;7.70;4.53;;;1.60;99.90;;;;;;5159039;27;20495;-65
2022/01/06 10:22:57;;;;;;;8.30;4.17;;;1.60;99.90;;;;;;5139343;27;20524;-66
2022/01/06 10:25:30;;;;;;;7.97;4.07;;;1.60;99.90;;;;;;5141536;27;20167;-66
2022/01/06 10:28:19;;;;;;;7.30;3.93;;;1.60;99.90;;;;;;5159517;27;20157;-65
2022/01/06 10:30:48;;;;;;;6.63;4.10;;;1.70;99.90;;;;;;5142299;27;20168;-66
2022/01/06 10:33:17;;;;;;;9.47;4.63;;;1.60;99.90;;;;;;5139838;27;20175;-66
2022/01/06 10:35:44;;;;;;;8.37;4.63;;;1.60;99.90;;;;;;5159738;27;20331;-65
2022/01/06 10:38:11;;;;;;;8.77;4.83;;;1.60;99.90;;;;;;5139781;27;20152;-66
2022/01/06 10:40:38;;;;;;;9.90;4.60;;;1.60;99.90;;;;;;5160752;27;20136;-66
2022/01/06 10:43:32;;;;;;;10.87;4.93;;;1.70;99.90;;;;;;5157129;27;20530;-66
2022/01/06 10:46:02;;;;;;;10.57;4.50;;;1.70;99.90;;;;;;5140799;27;20474;-69
2022/01/06 10:48:29;;;;;;;11.50;4.80;;;1.70;99.90;;;;;;5141922;27;20151;-65
2022/01/06 10:50:58;;;;;;;9.57;5.27;;;1.70;99.90;;;;;;5141105;27;20140;-66
2022/01/06 10:53:25;;;;;;;10.87;4.90;;;1.80;99.90;;;;;;5156752;27;20159;-66
2022/01/06 10:55:52;;;;;;;8.13;4.77;;;1.80;99.90;;;;;;5159591;27;20155;-65
2022/01/06 10:58:25;;;;;;;8.80;5.17;;;1.80;99.90;;;;;;5140208;27;20171;-65
2022/01/06 11:01:01;;;;;;;9.37;5.23;;;1.80;99.90;;;;;;5142907;27;20374;-66
2022/01/06 11:03:34;;;;;;;10.33;5.30;;;1.80;99.90;;;;;;5141970;27;20136;-66
2022/01/06 11:06:03;;;;;;;11.10;5.20;;;1.70;99.90;;;;;;5140007;27;20148;-66
2022/01/06 11:08:39;;;;;;;9.47;5.70;;;1.70;99.90;;;;;;5140071;27;20131;-66
2022/01/06 11:13:46;;;;;;;14.30;5.30;;;1.70;99.90;;;;;;5156996;27;20148;-66
2022/01/06 11:16:16;;;;;;;14.50;6.07;;;1.60;99.90;;;;;;5141045;27;20140;-67
2022/01/06 11:18:57;;;;;;;11.97;5.83;;;1.50;99.90;;;;;;5141666;27;20158;-66
2022/01/06 11:21:46;;;;;;;10.83;5.80;;;1.20;99.90;;;;;;5141699;27;20419;-67
2022/01/06 11:24:22;;;;;;;13.53;5.90;;;1.20;99.90;;;;;;5159064;27;20135;-66
2022/01/06 11:27:02;;;;;;;13.17;6.47;;;1.30;99.90;;;;;;5140224;27;20149;-66
2022/01/06 11:29:34;;;;;;;13.30;6.50;;;1.20;99.90;;;;;;5141213;27;20202;-67
2022/01/06 11:32:04;;;;;;;13.10;7.03;;;1.20;99.90;;;;;;5156568;27;20417;-66
2022/01/06 11:34:38;;;;;;;13.57;6.77;;;1.20;99.90;;;;;;5156974;27;20531;-66
2022/01/06 11:37:15;;;;;;;13.70;6.97;;;1.20;99.90;;;;;;5140184;27;20522;-66
2022/01/06 11:39:43;;;;;;;16.23;7.50;;;1.30;99.90;;;;;;5141174;27;20174;-66
2022/01/06 11:42:22;;;;;;;13.57;7.67;;;1.20;99.90;;;;;;5159451;27;20112;-66
2022/01/06 11:44:54;;;;;;;16.90;7.33;;;1.20;99.90;;;;;;5140956;27;20575;-66
2022/01/06 11:47:37;;;;;;;15.90;8.03;;;1.30;99.90;;;;;;5139853;27;20148;-65
2022/01/06 11:50:24;;;;;;;17.57;7.67;;;1.20;99.90;;;;;;5141321;27;20244;-66
2022/01/06 11:52:58;;;;;;;15.07;7.37;;;1.30;99.90;;;;;;5140319;27;20479;-66
2022/01/06 11:55:35;;;;;;;15.50;7.27;;;1.30;99.90;;;;;;5160289;27;20135;-66
2022/01/06 11:58:18;;;;;;;15.10;7.33;;;1.20;99.90;;;;;;5160239;27;20131;-66
2022/01/06 12:00:58;;;;;;;14.27;7.63;;;1.30;99.90;;;;;;5161151;27;20112;-66
2022/01/06 12:03:36;;;;;;;13.73;7.97;;;1.40;99.90;;;;;;5139732;27;20207;-66
2022/01/06 12:06:04;;;;;;;16.20;8.40;;;1.30;99.90;;;;;;5140398;27;20187;-66
2022/01/06 12:08:40;;;;;;;15.97;8.07;;;1.30;99.90;;;;;;5141959;27;20183;-66
2022/01/06 12:11:21;;;;;;;15.20;7.97;;;1.30;99.90;;;;;;5158351;27;20569;-66
2022/01/06 12:13:50;;;;;;;14.10;7.77;;;1.30;99.90;;;;;;5158458;27;20148;-66
2022/01/06 12:16:31;;;;;;;18.17;8.13;;;1.20;99.90;;;;;;5139591;27;20187;-66
2022/01/06 12:19:01;;;;;;;16.60;9.10;;;1.10;99.90;;;;;;5158892;27;20139;-66
2022/01/06 12:21:28;;;;;;;15.60;8.40;;;1.00;99.90;;;;;;5157770;27;20171;-66
2022/01/06 12:24:06;;;;;;;12.53;7.47;;;0.80;99.90;;;;;;5159372;27;20116;-66
2022/01/06 12:26:34;;;;;;;9.80;5.87;;;0.70;99.90;;;;;;5140609;27;20163;-66
2022/01/06 12:29:04;;;;;;;8.73;5.33;;;0.60;99.90;;;;;;5160325;27;20135;-66
2022/01/06 12:31:32;;;;;;;9.93;4.43;;;0.50;99.90;;;;;;5140852;27;20151;-65
2022/01/06 12:34:01;;;;;;;7.67;4.20;;;0.40;99.90;;;;;;5140944;27;20144;-66
2022/01/06 12:36:34;;;;;;;8.30;4.73;;;0.30;99.90;;;;;;5141968;27;20144;-66
2022/01/06 12:39:10;;;;;;;7.33;4.53;;;0.30;99.90;;;;;;5156830;27;20475;-66
2022/01/06 12:41:39;;;;;;;5.87;3.80;;;0.30;99.90;;;;;;5139902;27;20489;-66
2022/01/06 12:44:08;;;;;;;7.03;3.87;;;0.30;99.90;;;;;;5157480;27;20421;-66
2022/01/06 12:46:41;;;;;;;7.40;4.40;;;0.20;99.90;;;;;;5139554;27;20486;-66
2022/01/06 12:49:10;;;;;;;8.90;5.10;;;0.10;99.90;;;;;;5139758;27;20151;-66
2022/01/06 12:51:40;;;;;;;9.67;5.37;;;0.10;99.90;;;;;;5159120;27;20172;-65
2022/01/06 12:54:13;;;;;;;9.40;6.00;;;0.00;99.90;;;;;;5140184;27;20389;-66
2022/01/06 12:56:48;;;;;;;9.20;5.90;;;0.00;99.90;;;;;;5139503;27;20486;-66
2022/01/06 12:59:21;;;;;;;9.73;6.60;;;-0.10;99.90;;;;;;5158965;27;20116;-66
2022/01/06 13:01:54;;;;;;;12.77;7.53;;;-0.10;99.90;;;;;;5141824;27;20509;-66
2022/01/06 13:04:28;;;;;;;12.00;7.20;;;-0.10;99.90;;;;;;5139734;27;20263;-66
2022/01/06 13:06:56;;;;;;;10.73;6.27;;;-0.10;99.90;;;;;;5158611;27;20172;-66
2022/01/06 13:09:26;;;;;;;7.90;5.73;;;-0.20;99.90;;;;;;5139427;27;20510;-66
2022/01/06 13:12:03;;;;;;;11.30;5.77;;;-0.20;99.90;;;;;;5140318;27;20146;-66
2022/01/06 13:14:31;;;;;;;9.93;5.30;;;-0.10;99.90;;;;;;5139258;27;20507;-66
2022/01/06 13:17:19;;;;;;;9.67;4.90;;;-0.20;99.90;;;;;;5141689;27;20140;-66